Time;durP1;ratioP1;P1;durP2;ratioP2;P2;SDS_P1;SDS_P2;PMS_P1;PMS_P2;Temp;Humidity;BMP_temperature;BMP_pressure;BME280_temperature;BME280_humidity;BME280_pressure;Samples;Min_cycle;Max_cycle;Signal;HPM_P1;HPM_P2
2023/10/22 00:01:47;;;;;;;38.60;21.10;;;;;;;12.95;100.00;99131.10;110376;1275;23139;-77
2023/10/22 00:04:18;;;;;;;39.40;20.40;;;;;;;12.95;100.00;99132.01;110412;1273;22661;-77
2023/10/22 00:06:49;;;;;;;42.80;22.00;;;;;;;12.97;100.00;99133.17;110383;1272;22136;-76
2023/10/22 00:09:20;;;;;;;48.10;23.30;;;;;;;12.96;100.00;99128.85;110433;1267;22283;-78
2023/10/22 00:11:50;;;;;;;43.10;20.80;;;;;;;12.94;100.00;99124.33;110468;1270;22168;-80
2023/10/22 00:14:21;;;;;;;41.00;20.60;;;;;;;12.93;100.00;99124.33;108193;1257;25275;-79
2023/10/22 00:16:52;;;;;;;43.40;21.30;;;;;;;12.92;100.00;99128.92;107593;1267;24222;-78
2023/10/22 00:19:22;;;;;;;41.50;22.30;;;;;;;12.92;100.00;99125.42;107327;1269;22526;-78
2023/10/22 00:21:53;;;;;;;43.10;22.40;;;;;;;12.92;100.00;99119.86;107313;1274;25224;-77
2023/10/22 00:24:24;;;;;;;44.20;21.40;;;;;;;12.90;100.00;99120.45;107358;1274;24208;-77
2023/10/22 00:26:55;;;;;;;39.30;20.50;;;;;;;12.87;100.00;99120.50;107410;1274;25333;-77
2023/10/22 00:29:25;;;;;;;42.90;21.40;;;;;;;12.86;100.00;99115.13;107381;1269;22558;-77
2023/10/22 00:31:56;;;;;;;43.50;21.00;;;;;;;12.88;100.00;99113.90;107326;1275;24393;-77
2023/10/22 00:34:27;;;;;;;40.00;20.30;;;;;;;12.87;100.00;99109.92;107353;1270;25383;-77
2023/10/22 00:36:59;;;;;;;38.90;20.60;;;;;;;12.86;100.00;99109.11;107413;1275;23937;-77
2023/10/22 00:39:31;;;;;;;44.00;21.80;;;;;;;12.88;100.00;99102.38;107381;1273;24234;-77
2023/10/22 00:42:02;;;;;;;42.60;21.50;;;;;;;12.89;100.00;99103.80;107520;1275;22631;-77
2023/10/22 00:44:32;;;;;;;44.50;21.90;;;;;;;12.89;100.00;99104.51;107599;1269;22573;-77
2023/10/22 00:47:05;;;;;;;40.60;21.40;;;;;;;12.90;100.00;99103.39;107551;1272;23061;-77
2023/10/22 00:49:35;;;;;;;40.10;20.70;;;;;;;12.90;100.00;99113.21;107408;1267;22525;-77
2023/10/22 00:52:08;;;;;;;41.70;21.30;;;;;;;12.90;100.00;99116.98;107347;1267;25595;-77
2023/10/22 00:54:39;;;;;;;42.00;20.90;;;;;;;12.90;100.00;99118.92;107409;1271;24002;-78
2023/10/22 00:57:10;;;;;;;38.80;21.70;;;;;;;12.90;100.00;99125.13;107657;1272;24251;-77
2023/10/22 00:59:43;;;;;;;39.70;21.10;;;;;;;12.91;100.00;99129.55;108711;1267;22496;-77
2023/10/22 01:02:14;;;;;;;37.70;19.60;;;;;;;12.92;100.00;99143.86;109214;1267;22654;-77
2023/10/22 01:04:45;;;;;;;42.20;20.80;;;;;;;12.94;100.00;99144.96;107886;1270;22568;-77
2023/10/22 01:07:16;;;;;;;43.00;22.10;;;;;;;12.92;100.00;99139.58;107518;1274;22570;-77
2023/10/22 01:09:47;;;;;;;40.10;21.60;;;;;;;12.92;100.00;99126.89;107423;1267;24255;-77
2023/10/22 01:12:18;;;;;;;41.50;21.20;;;;;;;12.93;100.00;99118.43;107463;1274;22643;-77
2023/10/22 01:14:49;;;;;;;43.50;22.20;;;;;;;12.94;100.00;99118.02;107428;1275;22514;-77
2023/10/22 01:17:19;;;;;;;41.90;21.90;;;;;;;12.95;100.00;99116.69;107543;1273;22570;-77
2023/10/22 01:19:51;;;;;;;41.30;20.70;;;;;;;12.96;100.00;99114.02;107383;1267;25551;-77
2023/10/22 01:22:23;;;;;;;44.50;20.90;;;;;;;12.97;100.00;99107.14;110372;1267;23032;-78
2023/10/22 01:24:53;;;;;;;42.20;21.30;;;;;;;12.96;100.00;99096.70;110436;1275;22149;-78
2023/10/22 01:27:24;;;;;;;45.00;22.80;;;;;;;12.96;100.00;99097.88;110391;1269;22347;-78
2023/10/22 01:29:54;;;;;;;41.50;21.40;;;;;;;12.96;100.00;99097.06;110429;1275;22395;-78
2023/10/22 01:32:30;;;;;;;45.20;22.80;;;;;;;12.97;100.00;99104.23;110454;1272;22442;-78
2023/10/22 01:35:01;;;;;;;42.40;20.70;;;;;;;12.98;100.00;99105.45;110224;1270;244647;-78
2023/10/22 01:37:34;;;;;;;46.10;23.00;;;;;;;12.99;100.00;99104.31;110445;1270;22199;-78
2023/10/22 01:40:06;;;;;;;44.90;23.40;;;;;;;13.01;100.00;99102.94;110403;1274;23123;-78
2023/10/22 01:42:36;;;;;;;44.50;22.80;;;;;;;13.01;100.00;99096.36;110439;1267;22439;-79
2023/10/22 01:45:09;;;;;;;44.50;22.50;;;;;;;13.00;100.00;99097.02;110428;1270;22322;-79
2023/10/22 01:47:40;;;;;;;43.80;24.10;;;;;;;13.01;100.00;99099.77;110434;1271;22862;-79
2023/10/22 01:50:12;;;;;;;40.40;22.40;;;;;;;13.01;100.00;99104.77;110409;1270;22220;-79
2023/10/22 01:52:42;;;;;;;40.40;21.70;;;;;;;13.01;100.00;99109.51;110404;1275;22227;-79
2023/10/22 01:55:13;;;;;;;45.90;22.00;;;;;;;13.00;100.00;99108.12;110410;1275;22171;-79
2023/10/22 01:57:44;;;;;;;38.80;22.50;;;;;;;13.00;100.00;99109.45;110446;1275;22177;-76
2023/10/22 02:00:17;;;;;;;43.00;22.50;;;;;;;13.01;100.00;99109.70;110383;1275;22218;-77
2023/10/22 02:02:48;;;;;;;42.10;21.30;;;;;;;13.03;100.00;99102.24;110465;1275;22952;-80
2023/10/22 02:05:18;;;;;;;41.50;22.00;;;;;;;13.06;100.00;99095.16;110479;1272;22202;-80
2023/10/22 02:07:49;;;;;;;39.40;20.50;;;;;;;13.09;100.00;99091.02;110413;1275;22190;-80
2023/10/22 02:10:20;;;;;;;40.30;21.00;;;;;;;13.11;100.00;99095.03;110380;1275;22199;-76
2023/10/22 02:12:51;;;;;;;40.30;21.20;;;;;;;13.12;100.00;99093.48;110446;1275;22144;-76
2023/10/22 02:15:23;;;;;;;39.20;20.90;;;;;;;13.11;100.00;99088.15;110423;1275;22730;-76
2023/10/22 02:17:54;;;;;;;45.00;22.50;;;;;;;13.08;100.00;99077.73;110404;1272;23197;-75
2023/10/22 02:20:24;;;;;;;41.70;22.10;;;;;;;13.03;100.00;99073.67;110403;1275;22177;-76
2023/10/22 02:22:57;;;;;;;40.90;20.00;;;;;;;12.98;100.00;99064.29;110415;1275;22473;-79
2023/10/22 02:25:28;;;;;;;42.10;21.20;;;;;;;12.92;100.00;99063.17;110323;1275;22172;-79
2023/10/22 02:27:59;;;;;;;40.10;20.00;;;;;;;12.89;100.00;99064.59;110475;1275;22977;-80
2023/10/22 02:30:30;;;;;;;40.80;21.50;;;;;;;12.87;100.00;99062.15;110467;1267;22960;-80
2023/10/22 02:33:01;;;;;;;38.30;21.20;;;;;;;12.87;100.00;99056.14;110472;1275;22863;-79
2023/10/22 02:35:31;;;;;;;43.00;21.80;;;;;;;12.88;100.00;99056.54;110358;1275;22815;-79
2023/10/22 02:38:02;;;;;;;41.20;21.20;;;;;;;12.91;100.00;99055.96;110416;1275;22983;-79
2023/10/22 02:40:36;;;;;;;46.00;22.10;;;;;;;12.93;100.00;99052.77;110409;1272;22194;-79
2023/10/22 02:43:07;;;;;;;43.20;21.00;;;;;;;12.96;100.00;99051.17;110443;1273;22154;-79
2023/10/22 02:45:38;;;;;;;39.80;20.90;;;;;;;12.99;100.00;99051.45;110439;1270;22232;-79
2023/10/22 02:48:09;;;;;;;41.00;20.40;;;;;;;13.02;100.00;99050.40;110409;1269;22384;-78
2023/10/22 02:50:40;;;;;;;41.80;21.50;;;;;;;13.05;100.00;99049.38;110413;1275;22190;-78
2023/10/22 02:53:11;;;;;;;39.30;21.90;;;;;;;13.08;100.00;99052.00;110397;1275;22225;-78
2023/10/22 02:55:42;;;;;;;38.90;21.20;;;;;;;13.10;100.00;99056.72;110384;1275;22152;-78
2023/10/22 02:58:13;;;;;;;41.40;22.40;;;;;;;13.12;100.00;99059.96;110275;1257;22999;-78
2023/10/22 03:00:44;;;;;;;41.70;21.80;;;;;;;13.13;100.00;99063.57;110425;1275;22177;-78
2023/10/22 03:03:15;;;;;;;41.50;22.20;;;;;;;13.13;100.00;99068.05;110415;1275;22648;-78
2023/10/22 03:05:46;;;;;;;45.40;21.20;;;;;;;13.14;100.00;99066.06;110391;1275;22197;-78
2023/10/22 03:08:19;;;;;;;44.60;22.00;;;;;;;13.15;100.00;99070.83;110407;1268;22171;-78
2023/10/22 03:10:50;;;;;;;43.50;21.90;;;;;;;13.16;100.00;99081.52;110406;1269;22501;-78
2023/10/22 03:13:21;;;;;;;41.80;21.40;;;;;;;13.18;100.00;99082.16;110408;1275;22203;-78
2023/10/22 03:15:51;;;;;;;42.50;21.60;;;;;;;13.21;100.00;99078.16;110416;1262;22910;-78
2023/10/22 03:18:22;;;;;;;46.30;21.70;;;;;;;13.24;100.00;99078.02;110458;1271;22295;-78
2023/10/22 03:20:53;;;;;;;41.20;22.50;;;;;;;13.25;100.00;99079.18;110420;1275;22727;-79
2023/10/22 03:23:25;;;;;;;43.40;21.80;;;;;;;13.27;100.00;99081.52;110483;1268;22241;-79
2023/10/22 03:26:04;;;;;;;37.60;20.60;;;;;;;13.29;100.00;99079.46;110442;1275;23050;-75
2023/10/22 03:28:36;;;;;;;39.10;20.80;;;;;;;13.29;100.00;99078.83;110396;1275;22297;-75
2023/10/22 03:31:08;;;;;;;41.30;21.20;;;;;;;13.30;100.00;99078.07;110391;1275;22159;-75
2023/10/22 03:33:38;;;;;;;38.40;21.10;;;;;;;13.31;100.00;99080.66;110420;1275;22344;-78
2023/10/22 03:36:11;;;;;;;39.00;20.30;;;;;;;13.30;100.00;99075.46;110494;1275;22156;-80
2023/10/22 03:38:42;;;;;;;47.20;22.10;;;;;;;13.32;100.00;99070.41;110475;1275;22146;-79
2023/10/22 03:41:13;;;;;;;41.90;20.80;;;;;;;13.32;100.00;99060.36;110477;1269;22183;-79
2023/10/22 03:43:43;;;;;;;45.50;21.40;;;;;;;13.32;100.00;99059.39;108656;1269;25374;-78
2023/10/22 03:46:14;;;;;;;42.00;22.00;;;;;;;13.32;100.00;99060.71;107413;1275;22525;-78
2023/10/22 03:48:45;;;;;;;40.10;19.40;;;;;;;13.34;100.00;99059.22;107327;1275;22527;-78
2023/10/22 03:51:15;;;;;;;37.20;19.10;;;;;;;13.34;100.00;99063.09;107297;1273;22486;-78
2023/10/22 03:53:48;;;;;;;39.60;20.50;;;;;;;13.33;100.00;99066.96;107334;1275;23031;-78
2023/10/22 03:56:19;;;;;;;46.20;21.10;;;;;;;13.33;100.00;99063.04;110430;1268;23043;-78
2023/10/22 03:58:50;;;;;;;36.60;20.20;;;;;;;13.34;100.00;99067.66;110371;1275;22187;-78
2023/10/22 04:01:21;;;;;;;41.20;22.80;;;;;;;13.36;100.00;99064.34;110394;1275;22859;-78
2023/10/22 04:03:52;;;;;;;43.90;22.90;;;;;;;13.37;100.00;99061.11;110462;1261;22890;-78
2023/10/22 04:06:22;;;;;;;39.60;20.60;;;;;;;13.39;100.00;99063.24;110401;1269;22192;-78
2023/10/22 04:08:53;;;;;;;45.00;21.70;;;;;;;13.40;100.00;99066.18;110396;1264;23114;-78
2023/10/22 04:11:24;;;;;;;44.30;22.50;;;;;;;13.42;100.00;99065.75;110353;1275;22594;-78
2023/10/22 04:13:54;;;;;;;43.90;23.90;;;;;;;13.44;100.00;99066.04;110445;1275;22333;-78
2023/10/22 04:16:28;;;;;;;39.60;22.30;;;;;;;13.48;100.00;99063.65;110373;1275;22203;-78
2023/10/22 04:18:58;;;;;;;42.50;22.00;;;;;;;13.50;100.00;99068.77;110410;1275;22156;-78
2023/10/22 04:21:29;;;;;;;43.50;22.20;;;;;;;13.53;100.00;99068.98;110425;1275;22176;-78
2023/10/22 04:24:00;;;;;;;42.70;22.20;;;;;;;13.55;100.00;99074.27;110382;1275;22159;-78
2023/10/22 04:26:30;;;;;;;45.10;22.80;;;;;;;13.57;100.00;99073.93;110376;1264;22262;-78
2023/10/22 04:29:01;;;;;;;39.40;20.40;;;;;;;13.58;100.00;99074.78;110452;1273;22309;-79
2023/10/22 04:31:32;;;;;;;47.00;22.80;;;;;;;13.61;100.00;99075.48;110342;1275;22992;-79
2023/10/22 04:34:03;;;;;;;46.00;21.60;;;;;;;13.62;100.00;99074.64;110526;1275;22152;-79
2023/10/22 04:36:34;;;;;;;38.70;18.80;;;;;;;13.64;100.00;99078.23;110557;1275;22372;-79
2023/10/22 04:39:05;;;;;;;41.90;22.90;;;;;;;13.67;100.00;99079.02;110557;1275;22231;-79
2023/10/22 04:41:35;;;;;;;40.50;21.00;;;;;;;13.71;100.00;99085.30;110528;1272;22180;-79
2023/10/22 04:44:07;;;;;;;41.00;20.50;;;;;;;13.73;100.00;99085.69;110727;1275;22169;-79
2023/10/22 04:46:37;;;;;;;37.00;19.40;;;;;;;13.75;100.00;99081.57;110737;1275;22611;-79
2023/10/22 04:49:08;;;;;;;33.40;19.80;;;;;;;13.76;100.00;99077.23;110540;1275;22175;-79
2023/10/22 04:51:40;;;;;;;37.70;20.30;;;;;;;13.78;100.00;99077.04;110485;1275;22397;-79
2023/10/22 04:54:10;;;;;;;39.80;19.70;;;;;;;13.79;100.00;99077.23;110477;1275;22293;-79
2023/10/22 04:56:41;;;;;;;36.10;19.30;;;;;;;13.80;100.00;99081.02;110461;1260;22222;-79
2023/10/22 04:59:12;;;;;;;34.90;17.90;;;;;;;13.79;100.00;99081.77;110421;1275;23167;-79
2023/10/22 05:01:43;;;;;;;39.50;20.20;;;;;;;13.80;100.00;99087.33;110408;1275;22196;-79
2023/10/22 05:04:13;;;;;;;38.30;19.90;;;;;;;13.82;100.00;99084.45;110374;1275;22843;-78
2023/10/22 05:06:44;;;;;;;38.90;19.80;;;;;;;13.84;100.00;99086.10;110417;1275;22210;-79
2023/10/22 05:09:16;;;;;;;34.60;18.00;;;;;;;13.86;100.00;99085.33;110379;1275;22158;-78
2023/10/22 05:11:47;;;;;;;33.70;17.20;;;;;;;13.88;100.00;99085.55;110403;1275;22196;-78
2023/10/22 05:14:17;;;;;;;38.20;19.20;;;;;;;13.90;100.00;99085.33;110381;1274;22190;-78
2023/10/22 05:16:48;;;;;;;36.50;20.00;;;;;;;13.91;100.00;99083.77;110435;1275;22246;-78
2023/10/22 05:19:19;;;;;;;34.40;18.80;;;;;;;13.93;100.00;99088.59;110388;1275;22174;-78
2023/10/22 05:21:49;;;;;;;44.30;24.20;;;;;;;13.94;100.00;99086.23;110384;1275;22337;-78
2023/10/22 05:24:20;;;;;;;50.00;25.80;;;;;;;13.94;100.00;99089.95;110435;1275;22657;-79
2023/10/22 05:26:51;;;;;;;46.20;26.30;;;;;;;13.95;100.00;99086.16;110416;1275;22295;-78
2023/10/22 05:29:22;;;;;;;46.20;25.90;;;;;;;13.96;100.00;99088.59;110361;1275;22196;-77
2023/10/22 05:31:53;;;;;;;44.90;24.20;;;;;;;13.98;100.00;99089.76;110391;1271;23026;-78
2023/10/22 05:34:23;;;;;;;42.70;22.20;;;;;;;14.00;100.00;99088.71;110388;1275;22337;-78
2023/10/22 05:36:54;;;;;;;42.40;22.60;;;;;;;14.01;100.00;99092.77;110436;1275;23280;-78
2023/10/22 05:39:25;;;;;;;42.30;21.40;;;;;;;14.01;100.00;99097.13;110408;1275;22282;-79
2023/10/22 05:41:55;;;;;;;44.80;22.00;;;;;;;14.01;100.00;99102.27;110418;1275;22390;-80
2023/10/22 05:44:26;;;;;;;40.70;21.70;;;;;;;14.01;100.00;99095.69;110420;1269;22447;-80
2023/10/22 05:46:57;;;;;;;35.20;19.60;;;;;;;13.98;100.00;99094.60;110448;1275;22625;-80
2023/10/22 05:49:28;;;;;;;32.20;18.40;;;;;;;13.94;100.00;99092.20;110453;1275;22174;-80
2023/10/22 05:51:58;;;;;;;35.50;18.40;;;;;;;13.93;100.00;99095.23;110376;1275;22385;-78
2023/10/22 05:54:29;;;;;;;39.30;19.00;;;;;;;13.94;100.00;99100.11;110414;1275;22177;-79
2023/10/22 05:57:01;;;;;;;39.20;20.80;;;;;;;13.94;100.00;99096.23;110383;1268;22322;-79
2023/10/22 05:59:33;;;;;;;35.30;18.20;;;;;;;13.94;100.00;99095.93;110445;1275;22863;-79
2023/10/22 06:02:04;;;;;;;34.30;19.60;;;;;;;13.94;100.00;99091.33;110436;1275;22691;-81
2023/10/22 06:04:35;;;;;;;34.60;18.90;;;;;;;13.94;100.00;99088.98;110445;1275;22161;-80
2023/10/22 06:07:07;;;;;;;37.20;19.70;;;;;;;13.93;100.00;99094.00;110394;1275;23146;-79
2023/10/22 06:09:38;;;;;;;37.00;19.20;;;;;;;13.92;100.00;99106.41;110440;1275;22164;-75
2023/10/22 06:12:09;;;;;;;39.50;21.10;;;;;;;13.92;100.00;99112.44;110394;1275;23092;-77
2023/10/22 06:14:40;;;;;;;33.90;18.60;;;;;;;13.90;100.00;99118.58;110439;1275;22203;-80
2023/10/22 06:17:11;;;;;;;37.20;19.10;;;;;;;13.88;100.00;99122.02;110403;1275;22185;-81
2023/10/22 06:19:41;;;;;;;36.60;18.30;;;;;;;13.86;100.00;99126.02;110402;1275;22191;-79
2023/10/22 06:22:12;;;;;;;36.30;18.00;;;;;;;13.83;100.00;99126.63;110367;1271;22174;-78
2023/10/22 06:24:44;;;;;;;35.20;19.10;;;;;;;13.82;100.00;99124.74;110444;1275;23057;-78
2023/10/22 06:27:15;;;;;;;37.00;19.00;;;;;;;13.82;100.00;99129.09;110369;1275;23213;-79
2023/10/22 06:29:49;;;;;;;39.40;19.00;;;;;;;13.82;100.00;99133.58;110385;1275;23011;-80
2023/10/22 06:32:21;;;;;;;37.90;18.20;;;;;;;13.83;100.00;99136.36;110396;1275;22178;-79
2023/10/22 06:34:52;;;;;;;36.10;17.60;;;;;;;13.84;100.00;99132.83;110433;1275;22156;-79
2023/10/22 06:37:23;;;;;;;32.70;17.10;;;;;;;13.85;100.00;99133.73;110448;1275;22256;-80
2023/10/22 06:39:55;;;;;;;40.70;18.10;;;;;;;13.87;100.00;99134.68;110435;1275;22491;-80
2023/10/22 06:42:26;;;;;;;33.90;17.10;;;;;;;13.91;100.00;99135.25;110467;1275;22278;-77
2023/10/22 06:44:57;;;;;;;31.30;17.00;;;;;;;13.94;100.00;99130.98;110429;1274;22350;-77
2023/10/22 06:47:29;;;;;;;36.20;18.90;;;;;;;13.97;100.00;99128.54;110388;1274;22191;-79
2023/10/22 06:50:00;;;;;;;35.90;18.10;;;;;;;14.00;100.00;99126.20;110378;1266;22348;-78
2023/10/22 06:52:30;;;;;;;34.00;17.40;;;;;;;14.01;100.00;99122.00;110380;1275;22195;-77
2023/10/22 06:55:01;;;;;;;33.30;17.50;;;;;;;14.04;100.00;99126.67;110386;1257;22390;-75
2023/10/22 06:57:33;;;;;;;38.90;17.60;;;;;;;14.04;100.00;99124.63;110376;1266;22319;-75
2023/10/22 07:00:04;;;;;;;45.40;20.50;;;;;;;14.05;100.00;99126.50;110443;1269;22312;-74
2023/10/22 07:02:35;;;;;;;73.00;33.00;;;;;;;14.05;100.00;99127.32;110426;1262;22320;-75
2023/10/22 07:05:10;;;;;;;79.90;38.60;;;;;;;14.06;100.00;99131.73;110402;1269;23088;-77
2023/10/22 07:07:43;;;;;;;40.90;21.40;;;;;;;14.05;100.00;99138.48;110423;1269;22321;-76
2023/10/22 07:10:14;;;;;;;32.60;17.30;;;;;;;14.02;100.00;99138.83;110369;1269;23628;-76
2023/10/22 07:12:44;;;;;;;30.10;16.40;;;;;;;13.98;100.00;99139.04;110407;1274;22302;-76
2023/10/22 07:15:15;;;;;;;38.00;19.30;;;;;;;13.96;100.00;99145.80;110363;1275;22237;-74
2023/10/22 07:17:47;;;;;;;40.90;20.70;;;;;;;13.95;100.00;99146.62;110449;1271;23437;-75
2023/10/22 07:20:18;;;;;;;41.70;20.20;;;;;;;13.92;100.00;99144.41;110408;1267;22385;-76
2023/10/22 07:22:49;;;;;;;37.40;20.40;;;;;;;13.91;100.00;99145.29;110380;1275;22916;-76
2023/10/22 07:25:20;;;;;;;41.80;22.40;;;;;;;13.91;100.00;99146.57;110294;1269;22425;-75
2023/10/22 07:27:51;;;;;;;40.50;22.30;;;;;;;13.88;100.00;99148.95;110369;1269;22277;-77
2023/10/22 07:30:22;;;;;;;36.50;19.40;;;;;;;13.84;100.00;99153.99;110411;1262;22463;-78
2023/10/22 07:32:53;;;;;;;31.80;17.10;;;;;;;13.81;100.00;99152.10;110521;1266;23174;-80
2023/10/22 07:35:24;;;;;;;36.10;19.60;;;;;;;13.77;100.00;99156.58;110491;1272;22221;-81
2023/10/22 07:37:55;;;;;;;36.40;17.70;;;;;;;13.75;100.00;99152.15;110499;1266;22789;-83
2023/10/22 07:40:26;;;;;;;32.10;17.40;;;;;;;13.74;100.00;99155.98;110438;1275;23656;-82
2023/10/22 07:42:57;;;;;;;35.70;19.30;;;;;;;13.74;100.00;99157.77;110411;1267;22328;-81
2023/10/22 07:45:29;;;;;;;37.30;19.90;;;;;;;13.73;100.00;99157.69;110435;1269;23098;-82
2023/10/22 07:48:00;;;;;;;41.50;22.10;;;;;;;13.74;100.00;99159.52;110403;1269;22248;-78
2023/10/22 07:50:31;;;;;;;40.70;21.90;;;;;;;13.75;100.00;99162.96;110393;1275;22234;-79
2023/10/22 07:53:02;;;;;;;42.80;23.30;;;;;;;13.75;100.00;99165.05;110445;1269;22372;-81
2023/10/22 07:55:33;;;;;;;43.30;23.50;;;;;;;13.74;100.00;99165.73;110463;1269;22428;-78
2023/10/22 07:58:04;;;;;;;47.30;22.60;;;;;;;13.72;100.00;99168.20;110444;1272;23362;-79
2023/10/22 08:00:35;;;;;;;50.80;23.10;;;;;;;13.69;100.00;99166.09;110461;1272;22183;-77
2023/10/22 08:03:06;;;;;;;44.80;22.70;;;;;;;13.70;100.00;99175.72;110429;1269;22224;-78
2023/10/22 08:05:37;;;;;;;50.90;24.70;;;;;;;13.69;100.00;99176.34;110442;1274;22382;-80
2023/10/22 08:08:08;;;;;;;48.20;23.00;;;;;;;13.71;100.00;99180.30;110460;1269;22386;-80
2023/10/22 08:10:39;;;;;;;44.50;21.80;;;;;;;13.72;100.00;99187.02;110380;1268;22328;-80
2023/10/22 08:13:10;;;;;;;42.00;21.30;;;;;;;13.70;100.00;99191.16;110415;1269;23042;-81
2023/10/22 08:15:41;;;;;;;34.90;18.30;;;;;;;13.68;100.00;99190.08;110445;1267;22338;-80
2023/10/22 08:18:12;;;;;;;39.70;19.20;;;;;;;13.65;100.00;99188.32;110447;1268;22373;-77
2023/10/22 08:20:43;;;;;;;39.10;19.20;;;;;;;13.64;100.00;99189.86;110388;1269;22415;-79
2023/10/22 08:23:14;;;;;;;35.00;17.50;;;;;;;13.62;100.00;99187.38;110358;1269;22328;-78
2023/10/22 08:25:53;;;;;;;35.20;16.50;;;;;;;13.58;100.00;99191.14;110398;1269;22165;-79
2023/10/22 08:28:24;;;;;;;30.00;16.10;;;;;;;13.55;100.00;99196.17;110438;1260;22223;-79
2023/10/22 08:30:55;;;;;;;31.90;16.10;;;;;;;13.51;100.00;99196.92;110456;1275;23089;-80
2023/10/22 08:33:26;;;;;;;32.80;17.60;;;;;;;13.48;100.00;99208.33;110451;1275;22786;-81
2023/10/22 08:36:03;;;;;;;29.20;16.30;;;;;;;13.46;100.00;99208.95;110399;1275;22325;-80
2023/10/22 08:38:34;;;;;;;28.00;14.90;;;;;;;13.45;100.00;99212.48;110425;1275;23200;-81
2023/10/22 08:41:08;;;;;;;33.40;16.80;;;;;;;13.43;100.00;99213.77;110431;1269;22275;-77
2023/10/22 08:43:40;;;;;;;28.30;14.90;;;;;;;13.42;100.00;99214.08;110429;1275;22304;-78
2023/10/22 08:46:11;;;;;;;32.20;17.10;;;;;;;13.39;100.00;99215.98;110402;1268;22363;-77
2023/10/22 08:48:44;;;;;;;32.00;16.50;;;;;;;13.39;100.00;99218.29;110415;1275;22570;-77
2023/10/22 08:51:17;;;;;;;34.20;17.50;;;;;;;13.37;100.00;99219.42;110363;1269;22401;-80
2023/10/22 08:53:48;;;;;;;33.70;17.50;;;;;;;13.34;100.00;99216.14;110425;1266;22191;-78
2023/10/22 08:56:19;;;;;;;32.00;17.10;;;;;;;13.31;100.00;99217.39;110369;1275;22154;-81
2023/10/22 08:58:50;;;;;;;32.90;17.60;;;;;;;13.28;100.00;99215.08;110430;1264;22335;-80
2023/10/22 09:01:21;;;;;;;33.90;17.00;;;;;;;13.25;100.00;99217.48;110404;1275;22282;-78
2023/10/22 09:03:52;;;;;;;35.00;17.60;;;;;;;13.23;100.00;99217.70;110445;1270;22209;-82
2023/10/22 09:06:23;;;;;;;31.90;16.30;;;;;;;13.22;100.00;99219.23;110446;1269;22290;-83
2023/10/22 09:08:56;;;;;;;33.80;15.30;;;;;;;13.20;100.00;99219.01;110425;1269;22148;-84
2023/10/22 09:11:26;;;;;;;36.00;18.20;;;;;;;13.18;100.00;99221.98;110426;1275;22220;-81
2023/10/22 09:13:58;;;;;;;38.80;19.90;;;;;;;13.17;100.00;99230.54;110417;1273;22353;-82
2023/10/22 09:16:33;;;;;;;33.20;17.40;;;;;;;13.16;100.00;99233.61;110425;1275;22227;-82
2023/10/22 09:19:04;;;;;;;38.50;20.50;;;;;;;13.14;100.00;99237.80;110426;1275;22186;-81
2023/10/22 09:21:45;;;;;;;34.80;17.90;;;;;;;13.13;100.00;99241.58;110410;1267;22309;-82
2023/10/22 09:24:16;;;;;;;34.70;16.80;;;;;;;13.12;100.00;99245.00;110366;1264;22221;-82
2023/10/22 09:26:49;;;;;;;36.30;17.20;;;;;;;13.10;100.00;99246.25;110420;1268;22183;-83
2023/10/22 09:29:20;;;;;;;31.90;15.80;;;;;;;13.08;100.00;99248.39;110406;1275;22207;-83
2023/10/22 09:31:53;;;;;;;28.80;14.20;;;;;;;13.07;100.00;99255.64;110314;1270;22331;-77
2023/10/22 09:34:28;;;;;;;22.30;10.70;;;;;;;13.02;100.00;99255.58;110333;1272;22385;-81
2023/10/22 09:36:59;;;;;;;23.20;9.80;;;;;;;12.99;100.00;99256.42;110362;1266;22386;-83
2023/10/22 09:39:38;;;;;;;16.10;6.30;;;;;;;12.96;100.00;99256.70;110356;1269;22936;-83
2023/10/22 09:42:10;;;;;;;20.80;6.60;;;;;;;12.90;100.00;99260.60;110292;1268;23229;-83
2023/10/22 09:44:44;;;;;;;16.20;6.70;;;;;;;12.85;100.00;99261.45;110395;1272;22233;-82
2023/10/22 09:47:21;;;;;;;12.30;4.30;;;;;;;12.83;100.00;99265.53;110441;1272;22197;-82
2023/10/22 09:49:57;;;;;;;9.70;4.10;;;;;;;12.79;100.00;99262.35;110462;1274;22199;-81
2023/10/22 09:52:38;;;;;;;10.60;3.50;;;;;;;12.76;100.00;99269.04;110438;1275;22629;-82
2023/10/22 09:55:14;;;;;;;6.80;2.60;;;;;;;12.72;100.00;99271.56;110511;1269;22186;-81
2023/10/22 09:57:47;;;;;;;8.90;2.80;;;;;;;12.70;100.00;99272.54;110323;1270;23345;-82
2023/10/22 10:00:18;;;;;;;7.80;2.40;;;;;;;12.68;100.00;99270.05;110226;1269;23035;-82
2023/10/22 10:02:50;;;;;;;7.20;2.20;;;;;;;12.66;100.00;99271.43;110379;1269;22547;-84
2023/10/22 10:05:22;;;;;;;9.20;2.50;;;;;;;12.64;100.00;99272.86;110444;1269;22741;-83
2023/10/22 10:07:54;;;;;;;6.40;1.50;;;;;;;12.60;100.00;99270.43;110513;1274;22398;-81
2023/10/22 10:10:26;;;;;;;5.80;1.90;;;;;;;12.59;100.00;99270.39;110488;1269;22837;-81
2023/10/22 10:12:57;;;;;;;8.00;1.40;;;;;;;12.57;100.00;99272.65;110492;1269;22285;-81
2023/10/22 10:15:35;;;;;;;4.60;1.30;;;;;;;12.55;100.00;99272.30;110469;1271;22191;-83
2023/10/22 10:18:07;;;;;;;5.90;1.40;;;;;;;12.53;100.00;99274.05;110453;1272;22364;-79
2023/10/22 10:20:41;;;;;;;4.80;1.00;;;;;;;12.51;100.00;99274.01;110482;1266;22337;-80
2023/10/22 10:23:19;;;;;;;3.80;1.00;;;;;;;12.50;100.00;99270.98;110264;1261;22390;-82
2023/10/22 10:25:50;;;;;;;4.10;1.20;;;;;;;12.48;100.00;99272.33;109198;1266;22566;-82
2023/10/22 10:28:42;;;;;;;3.60;1.00;;;;;;;12.46;100.00;99273.05;108209;1271;22555;-82
2023/10/22 10:31:30;;;;;;;3.10;1.00;;;;;;;12.43;100.00;99276.33;110381;1269;23196;-83
2023/10/22 10:34:05;;;;;;;2.80;0.80;;;;;;;12.38;100.00;99272.52;110448;1269;22458;-84
2023/10/22 10:36:38;;;;;;;4.80;1.00;;;;;;;12.37;100.00;99278.23;110451;1275;22292;-84
2023/10/22 10:39:39;;;;;;;4.20;1.20;;;;;;;12.35;100.00;99280.33;110423;1269;22233;-83
2023/10/22 10:42:12;;;;;;;4.00;1.10;;;;;;;12.34;100.00;99285.62;110462;1274;22173;-84
2023/10/22 10:45:07;;;;;;;3.90;1.20;;;;;;;12.32;100.00;99285.00;110471;1275;22345;-82
2023/10/22 10:47:40;;;;;;;2.50;0.90;;;;;;;12.30;100.00;99288.33;110388;1269;22272;-82
2023/10/22 10:50:19;;;;;;;6.10;1.30;;;;;;;12.29;100.00;99291.77;110399;1268;23600;-83
2023/10/22 10:53:06;;;;;;;3.60;1.30;;;;;;;12.28;100.00;99292.15;110460;1269;22306;-83
2023/10/22 10:55:38;;;;;;;4.20;1.30;;;;;;;12.28;100.00;99299.11;110488;1268;22341;-83
2023/10/22 10:58:09;;;;;;;5.00;1.10;;;;;;;12.29;100.00;99299.63;110428;1269;22342;-82
2023/10/22 11:00:40;;;;;;;3.10;1.00;;;;;;;12.30;100.00;99305.63;110470;1269;22196;-81
2023/10/22 11:03:21;;;;;;;4.70;1.10;;;;;;;12.29;100.00;99304.10;110474;1266;22200;-83
2023/10/22 11:05:53;;;;;;;5.40;1.30;;;;;;;12.29;100.00;99305.12;110477;1269;22176;-85
2023/10/22 11:08:25;;;;;;;2.90;1.00;;;;;;;12.30;100.00;99310.91;110422;1269;22167;-80
2023/10/22 11:10:57;;;;;;;4.60;1.30;;;;;;;12.29;100.00;99310.11;110400;1272;23193;-79
2023/10/22 11:13:29;;;;;;;5.00;1.20;;;;;;;12.29;100.00;99310.10;110466;1269;22414;-79
2023/10/22 11:16:07;;;;;;;5.10;1.50;;;;;;;12.29;100.00;99314.38;110397;1269;23575;-82
2023/10/22 11:18:56;;;;;;;3.10;1.10;;;;;;;12.30;100.00;99317.17;109724;1268;22588;-81
2023/10/22 11:21:28;;;;;;;2.50;0.80;;;;;;;12.31;100.00;99322.00;108609;1270;22479;-81
2023/10/22 11:24:00;;;;;;;2.40;0.80;;;;;;;12.30;100.00;99322.06;108589;1269;22549;-81
2023/10/22 11:26:34;;;;;;;3.40;0.90;;;;;;;12.30;100.00;99323.94;108821;1266;22612;-81